createdAt,value
2022-11-30T00:02:10.884Z,24.20
2022-11-30T00:05:13.333Z,24.88
2022-11-30T00:08:15.573Z,24.00
2022-11-30T00:11:20.845Z,25.02
2022-11-30T00:14:22.955Z,23.40
2022-11-30T00:17:24.939Z,23.45
2022-11-30T00:20:28.267Z,23.35
2022-11-30T00:26:36.397Z,22.92
2022-11-30T00:29:38.194Z,24.57
2022-11-30T00:32:39.914Z,22.65
2022-11-30T00:35:41.650Z,24.00
2022-11-30T00:38:44.578Z,24.77
2022-11-30T00:41:46.522Z,24.90
2022-11-30T00:44:48.429Z,24.80
2022-11-30T00:47:50.529Z,26.08
2022-11-30T00:50:52.599Z,24.60
2022-11-30T00:53:54.649Z,24.75
2022-11-30T00:56:56.415Z,24.40
2022-11-30T00:59:58.163Z,25.52
2022-11-30T01:02:59.921Z,25.48
2022-11-30T01:06:06.281Z,23.95
2022-11-30T01:09:08.129Z,25.20
2022-11-30T01:12:10.410Z,24.98
2022-11-30T01:15:12.146Z,25.60
2022-11-30T01:18:14.103Z,24.50
2022-11-30T01:21:19.268Z,24.00
2022-11-30T01:24:20.989Z,24.90
2022-11-30T01:27:23.052Z,26.08
2022-11-30T01:30:24.953Z,24.13
2022-11-30T01:33:26.862Z,24.40
2022-11-30T01:36:28.644Z,23.25
2022-11-30T01:39:30.344Z,23.50
2022-11-30T01:42:33.140Z,24.80
2022-11-30T01:45:35.108Z,23.92
2022-11-30T01:48:36.848Z,24.42
2022-11-30T01:51:48.629Z,23.42
2022-11-30T01:55:07.130Z,25.45
2022-11-30T01:58:13.866Z,25.70
2022-11-30T02:01:15.791Z,24.45
2022-11-30T02:04:33.051Z,25.10
2022-11-30T02:07:35.407Z,27.42
2022-11-30T02:10:41.204Z,27.30
2022-11-30T02:13:53.081Z,29.92
2022-11-30T02:17:25.443Z,29.05
2022-11-30T02:20:46.457Z,29.83
2022-11-30T02:23:57.318Z,31.48
2022-11-30T02:27:31.337Z,30.55
2022-11-30T02:30:37.112Z,29.45
2022-11-30T02:33:40.496Z,28.80
2022-11-30T02:39:44.654Z,29.27
2022-11-30T02:42:49.445Z,27.98
2022-11-30T02:46:04.823Z,29.10
2022-11-30T02:49:28.809Z,28.27
2022-11-30T02:52:32.209Z,27.33
2022-11-30T02:58:36.187Z,26.08
2022-11-30T03:01:38.683Z,27.20
2022-11-30T03:04:40.803Z,27.90
2022-11-30T03:07:42.946Z,27.85
2022-11-30T03:10:44.970Z,27.15
2022-11-30T03:13:47.147Z,26.88
2022-11-30T03:16:48.888Z,26.98
2022-11-30T03:19:50.863Z,27.27
2022-11-30T03:22:52.628Z,27.75
2022-11-30T03:25:58.941Z,28.08
2022-11-30T03:29:00.732Z,27.20
2022-11-30T03:32:02.440Z,26.58
2022-11-30T03:35:04.690Z,24.90
2022-11-30T03:38:06.681Z,25.67
2022-11-30T03:41:13.550Z,25.98
2022-11-30T03:44:15.355Z,24.58
2022-11-30T03:47:17.363Z,23.20
2022-11-30T03:50:19.353Z,22.92
2022-11-30T03:53:22.876Z,23.42
2022-11-30T03:56:25.090Z,22.63
2022-11-30T03:59:26.809Z,20.67
2022-11-30T04:02:28.622Z,19.67
2022-11-30T04:05:30.775Z,19.55
2022-11-30T04:08:32.804Z,20.35
2022-11-30T04:11:35.927Z,19.30
2022-11-30T04:14:37.727Z,18.83
2022-11-30T04:17:39.608Z,17.50
2022-11-30T04:20:41.835Z,17.70
2022-11-30T04:23:43.612Z,18.25
2022-11-30T04:26:46.113Z,18.25
2022-11-30T04:29:47.881Z,18.57
2022-11-30T04:32:49.634Z,18.58
2022-11-30T04:35:56.942Z,19.10
2022-11-30T04:38:58.759Z,18.45
2022-11-30T04:42:00.817Z,18.33
2022-11-30T04:45:02.611Z,17.88
2022-11-30T04:48:06.018Z,18.75
2022-11-30T04:54:10.111Z,19.23
2022-11-30T04:57:11.832Z,19.65
2022-11-30T05:00:16.347Z,20.05
2022-11-30T05:03:18.093Z,20.67
2022-11-30T05:06:20.141Z,21.42
2022-11-30T05:09:22.088Z,21.98
2022-11-30T05:12:24.610Z,21.00
2022-11-30T05:15:26.427Z,22.00
2022-11-30T05:18:29.690Z,21.92
2022-11-30T05:21:31.942Z,20.52
2022-11-30T05:24:34.123Z,19.45
2022-11-30T05:27:36.744Z,18.52
2022-11-30T05:30:43.029Z,21.50
2022-11-30T05:33:49.574Z,20.20
2022-11-30T05:36:51.683Z,20.50
2022-11-30T05:39:53.540Z,20.45
2022-11-30T05:42:57.514Z,20.88
2022-11-30T05:46:01.095Z,21.85
2022-11-30T05:49:03.044Z,21.25
2022-11-30T05:52:04.952Z,22.38
2022-11-30T05:55:07.137Z,23.27
2022-11-30T05:58:08.887Z,23.77
2022-11-30T06:01:25.548Z,23.52
2022-11-30T06:04:27.535Z,24.90
2022-11-30T06:07:29.374Z,23.20
2022-11-30T06:10:31.632Z,23.25
2022-11-30T06:13:33.906Z,25.95
2022-11-30T06:16:38.510Z,25.65
2022-11-30T06:19:40.244Z,24.80
2022-11-30T06:22:45.555Z,26.02
2022-11-30T06:25:47.424Z,25.27
2022-11-30T06:28:49.409Z,26.08
2022-11-30T06:31:51.299Z,25.27
2022-11-30T06:34:53.056Z,25.92
2022-11-30T06:37:55.186Z,25.60
2022-11-30T06:41:06.886Z,26.58
2022-11-30T06:44:11.529Z,26.05
2022-11-30T06:47:13.450Z,26.33
2022-11-30T06:50:15.503Z,24.58
2022-11-30T06:53:17.447Z,26.60
2022-11-30T06:56:19.365Z,27.38
2022-11-30T06:59:21.046Z,27.08
2022-11-30T07:02:23.468Z,27.55
2022-11-30T07:05:25.471Z,27.75
2022-11-30T07:08:27.436Z,29.10
2022-11-30T07:11:29.799Z,29.23
2022-11-30T07:14:31.940Z,29.15
2022-11-30T07:17:33.643Z,28.95
2022-11-30T07:20:36.459Z,29.50
2022-11-30T07:23:57.278Z,28.85
2022-11-30T07:27:00.760Z,29.33
2022-11-30T07:33:04.159Z,30.13
2022-11-30T07:36:06.343Z,30.67
2022-11-30T07:39:08.405Z,30.27
2022-11-30T07:42:10.903Z,30.13
2022-11-30T07:45:12.601Z,30.60
2022-11-30T07:48:14.511Z,28.10
2022-11-30T07:51:19.820Z,29.77
2022-11-30T07:54:21.748Z,29.10
2022-11-30T07:57:23.583Z,29.27
2022-11-30T08:00:25.447Z,30.02
2022-11-30T08:03:28.560Z,29.88
2022-11-30T08:06:32.552Z,29.25
2022-11-30T08:09:34.543Z,29.50
2022-11-30T08:12:36.762Z,28.80
2022-11-30T08:15:39.154Z,34.60
2022-11-30T08:18:42.285Z,33.73
2022-11-30T08:21:44.240Z,30.48
2022-11-30T08:24:46.121Z,30.60
2022-11-30T08:27:48.290Z,29.27
2022-11-30T08:30:50.283Z,29.55
2022-11-30T08:34:00.119Z,29.10
2022-11-30T08:37:01.818Z,29.02
2022-11-30T08:40:04.253Z,28.63
2022-11-30T08:43:06.195Z,27.80
2022-11-30T08:46:34.897Z,29.73
2022-11-30T08:49:32.523Z,28.63
2022-11-30T08:52:34.390Z,28.95
2022-11-30T08:55:36.077Z,29.02
2022-11-30T08:58:39.649Z,28.90
2022-11-30T09:01:42.669Z,27.80
2022-11-30T09:04:44.725Z,28.98
2022-11-30T09:07:46.831Z,28.45
2022-11-30T09:10:48.745Z,27.75
2022-11-30T09:13:53.142Z,28.30
2022-11-30T09:16:55.340Z,27.60
2022-11-30T09:19:57.130Z,29.00
2022-11-30T09:22:59.703Z,28.83
2022-11-30T09:26:04.326Z,28.48
2022-11-30T09:29:06.313Z,26.88
2022-11-30T09:32:08.378Z,28.67
2022-11-30T09:35:12.728Z,28.00
2022-11-30T09:38:15.034Z,27.75
2022-11-30T09:41:22.776Z,26.67
2022-11-30T09:44:50.647Z,25.75
2022-11-30T09:48:11.209Z,27.65
2022-11-30T09:51:20.628Z,32.10
2022-11-30T09:54:35.629Z,28.55
2022-11-30T09:57:50.688Z,27.63
2022-11-30T10:00:52.531Z,82.13
2022-11-30T10:03:54.428Z,39.50
2022-11-30T10:07:15.168Z,101.95
2022-11-30T10:10:32.670Z,53.88
2022-11-30T10:13:47.734Z,35.17
2022-11-30T10:17:17.264Z,43.90
2022-11-30T10:20:31.761Z,539.38
2022-11-30T10:23:53.753Z,269.13
2022-11-30T10:27:12.021Z,65.38
2022-11-30T10:30:22.993Z,58.30
2022-11-30T10:33:38.167Z,212.95
2022-11-30T10:36:44.418Z,203.55
2022-11-30T10:40:00.227Z,105.25
2022-11-30T10:43:20.900Z,78.30
2022-11-30T10:46:28.521Z,27.40
2022-11-30T10:49:32.912Z,23.55
2022-11-30T10:52:43.764Z,21.48
2022-11-30T10:56:08.457Z,22.23
2022-11-30T10:59:16.346Z,21.50
2022-11-30T11:02:46.807Z,22.42
2022-11-30T11:06:02.400Z,28.27
2022-11-30T11:09:23.549Z,23.90
2022-11-30T11:12:27.864Z,22.40
2022-11-30T11:15:34.702Z,21.90
2022-11-30T11:18:51.188Z,25.17
2022-11-30T11:21:53.602Z,23.92
2022-11-30T11:25:30.838Z,22.25
2022-11-30T11:28:35.486Z,22.08
2022-11-30T11:31:46.479Z,21.48
2022-11-30T11:34:51.251Z,23.20
2022-11-30T11:37:53.507Z,25.02
2022-11-30T11:41:03.836Z,117.65
2022-11-30T11:44:11.189Z,52.45
2022-11-30T11:47:23.146Z,94.07
2022-11-30T11:51:05.618Z,176.30
2022-11-30T11:54:11.966Z,235.27
2022-11-30T11:57:16.838Z,116.85
2022-11-30T12:00:21.577Z,48.47
2022-11-30T12:03:41.893Z,72.78
2022-11-30T12:06:45.418Z,48.67
2022-11-30T12:12:59.344Z,30.33
2022-11-30T12:16:15.090Z,24.48
2022-11-30T12:19:58.036Z,24.90
2022-11-30T12:23:08.791Z,22.52
2022-11-30T12:26:19.437Z,22.08
2022-11-30T12:29:48.518Z,21.55
2022-11-30T12:33:10.039Z,41.75
2022-11-30T12:36:51.694Z,21.15
2022-11-30T12:40:20.896Z,23.80
2022-11-30T12:43:38.097Z,18.65
2022-11-30T12:46:54.974Z,20.60
2022-11-30T12:50:46.374Z,28.88
2022-11-30T12:54:04.580Z,25.90
2022-11-30T12:57:21.202Z,27.52
2022-11-30T13:00:25.310Z,20.13
2022-11-30T13:03:46.582Z,23.75
2022-11-30T13:06:56.141Z,18.95
2022-11-30T13:10:23.228Z,21.00
2022-11-30T13:13:29.884Z,184.57
2022-11-30T13:16:34.468Z,108.15
2022-11-30T13:19:54.675Z,27.27
2022-11-30T13:23:01.651Z,18.38
2022-11-30T13:26:19.387Z,16.25
2022-11-30T13:29:27.144Z,16.75
2022-11-30T13:32:57.442Z,32.78
2022-11-30T13:35:54.692Z,22.27
2022-11-30T13:39:15.037Z,18.95
2022-11-30T13:42:37.828Z,19.05
2022-11-30T13:45:39.708Z,20.17
2022-11-30T13:48:43.862Z,22.40
2022-11-30T13:51:46.136Z,20.27
2022-11-30T13:54:57.239Z,30.73
2022-11-30T13:57:59.110Z,27.15
2022-11-30T14:01:27.181Z,26.45
2022-11-30T14:04:33.205Z,23.63
2022-11-30T14:07:37.913Z,22.33
2022-11-30T14:10:47.549Z,22.52
2022-11-30T14:13:49.408Z,22.05
2022-11-30T14:16:51.315Z,20.33
2022-11-30T14:20:00.272Z,18.27
2022-11-30T14:23:15.571Z,17.58
2022-11-30T14:26:24.752Z,17.85
2022-11-30T14:29:35.595Z,17.77
2022-11-30T14:32:44.012Z,18.85
2022-11-30T14:35:49.076Z,18.73
2022-11-30T14:38:50.871Z,16.80
2022-11-30T14:41:53.222Z,15.98
2022-11-30T14:44:56.403Z,15.48
2022-11-30T14:48:06.067Z,16.88
2022-11-30T14:51:11.049Z,13.90
2022-11-30T14:54:24.854Z,14.95
2022-11-30T14:57:38.696Z,15.68
2022-11-30T15:00:43.029Z,15.93
2022-11-30T15:03:46.091Z,15.73
2022-11-30T15:06:47.880Z,16.65
2022-11-30T15:09:54.836Z,17.20
2022-11-30T15:12:59.259Z,17.00
2022-11-30T15:16:00.973Z,16.95
2022-11-30T15:19:25.194Z,16.35
2022-11-30T15:22:34.988Z,18.10
2022-11-30T15:25:50.487Z,17.92
2022-11-30T15:29:16.984Z,18.08
2022-11-30T15:32:23.875Z,17.98
2022-11-30T15:35:38.723Z,18.45
2022-11-30T15:38:50.559Z,18.07
2022-11-30T15:41:58.371Z,18.15
2022-11-30T15:45:16.597Z,18.17
2022-11-30T15:48:29.443Z,18.10
2022-11-30T15:51:38.508Z,17.92
2022-11-30T15:54:54.179Z,18.20
2022-11-30T15:58:01.875Z,18.23
2022-11-30T16:01:06.541Z,18.45
2022-11-30T16:04:08.567Z,17.95
2022-11-30T16:07:18.774Z,19.45
2022-11-30T16:10:33.992Z,20.95
2022-11-30T16:13:35.775Z,22.98
2022-11-30T16:16:37.771Z,21.13
2022-11-30T16:19:39.919Z,20.98
2022-11-30T16:22:43.615Z,24.55
2022-11-30T16:25:46.927Z,23.90
2022-11-30T16:31:50.482Z,26.70
2022-11-30T16:34:52.528Z,26.48
2022-11-30T16:37:54.483Z,35.05
2022-11-30T16:41:10.419Z,32.85
2022-11-30T16:44:14.435Z,30.85
2022-11-30T16:47:16.511Z,36.30
2022-11-30T16:50:19.501Z,31.98
2022-11-30T16:53:24.873Z,25.88
2022-11-30T16:56:29.415Z,23.70
2022-11-30T16:59:31.474Z,21.10
2022-11-30T17:02:34.116Z,24.38
2022-11-30T17:05:36.805Z,23.00
2022-11-30T17:08:39.522Z,22.23
2022-11-30T17:11:41.995Z,20.85
2022-11-30T17:14:43.723Z,25.38
2022-11-30T17:17:45.896Z,24.73
2022-11-30T17:20:47.865Z,27.55
2022-11-30T17:23:50.038Z,22.52
2022-11-30T17:26:51.911Z,22.55
2022-11-30T17:29:53.714Z,23.75
2022-11-30T17:32:55.500Z,29.98
2022-11-30T17:35:58.717Z,29.73
2022-11-30T17:39:07.679Z,27.60
2022-11-30T17:42:10.381Z,31.92
2022-11-30T17:45:12.342Z,30.92
2022-11-30T17:48:16.016Z,30.65
2022-11-30T17:51:18.105Z,25.48
2022-11-30T17:54:20.172Z,26.25
2022-11-30T17:57:22.085Z,55.15
2022-11-30T18:00:27.635Z,27.25
2022-11-30T18:03:30.608Z,20.55
2022-11-30T18:06:32.600Z,20.15
2022-11-30T18:09:40.812Z,19.85
2022-11-30T18:12:44.739Z,19.77
2022-11-30T18:15:46.813Z,19.55
2022-11-30T18:18:49.363Z,27.60
2022-11-30T18:21:51.213Z,22.57
2022-11-30T18:24:52.981Z,20.67
2022-11-30T18:27:54.981Z,18.83
2022-11-30T18:30:56.957Z,20.20
2022-11-30T18:34:01.114Z,24.75
2022-11-30T18:37:03.109Z,22.73
2022-11-30T18:40:05.589Z,23.13
2022-11-30T18:43:07.552Z,47.37
2022-11-30T18:46:11.731Z,25.17
2022-11-30T18:49:13.622Z,22.27
2022-11-30T18:52:15.428Z,19.40
2022-11-30T18:55:17.319Z,19.05
2022-11-30T18:58:19.320Z,18.45
2022-11-30T19:01:21.450Z,18.95
2022-11-30T19:04:27.072Z,18.73
2022-11-30T19:07:29.444Z,18.50
2022-11-30T19:10:36.455Z,17.98
2022-11-30T19:13:38.292Z,19.52
2022-11-30T19:16:40.755Z,19.23
2022-11-30T19:19:42.831Z,18.57
2022-11-30T19:22:44.700Z,19.08
2022-11-30T19:25:46.661Z,107.40
2022-11-30T19:28:48.379Z,54.75
2022-11-30T19:31:50.137Z,144.32
2022-11-30T19:34:52.670Z,233.65
2022-11-30T19:37:54.569Z,225.10
2022-11-30T19:40:56.687Z,83.55
2022-11-30T19:44:04.119Z,171.55
2022-11-30T19:47:06.637Z,122.05
2022-11-30T19:50:08.787Z,89.25
2022-11-30T19:53:10.514Z,88.30
2022-11-30T19:56:15.133Z,116.97
2022-11-30T19:59:17.185Z,111.65
2022-11-30T20:02:19.346Z,71.13
2022-11-30T20:05:21.212Z,55.50
2022-11-30T20:08:23.473Z,50.90
2022-11-30T20:11:25.292Z,62.38
2022-11-30T20:14:27.202Z,81.35
2022-11-30T20:17:29.219Z,64.47
2022-11-30T20:20:31.073Z,68.28
2022-11-30T20:23:34.955Z,74.88
2022-11-30T20:26:42.175Z,64.63
2022-11-30T20:29:44.515Z,60.40
2022-11-30T20:32:46.465Z,51.45
2022-11-30T20:35:48.288Z,75.80
2022-11-30T20:38:50.486Z,58.78
2022-11-30T20:41:52.230Z,49.60
2022-11-30T20:44:54.379Z,81.97
2022-11-30T20:47:56.121Z,69.20
2022-11-30T20:51:29.301Z,95.97
2022-11-30T20:54:30.591Z,123.78
2022-11-30T20:57:33.164Z,205.88
2022-11-30T21:00:35.535Z,186.02
2022-11-30T21:03:37.699Z,44.95
2022-11-30T21:06:45.750Z,26.55
2022-11-30T21:09:47.805Z,174.75
2022-11-30T21:12:49.796Z,283.15
2022-11-30T21:15:51.814Z,138.48
2022-11-30T21:18:53.756Z,167.98
2022-11-30T21:21:56.643Z,88.32
2022-11-30T21:24:58.395Z,31.08
2022-11-30T21:28:00.406Z,27.48
2022-11-30T21:31:03.916Z,30.52
2022-11-30T21:34:06.102Z,22.80
2022-11-30T21:37:08.062Z,20.83
2022-11-30T21:40:10.903Z,23.27
2022-11-30T21:43:12.609Z,37.05
2022-11-30T21:46:17.750Z,49.92
2022-11-30T21:49:19.623Z,40.90
2022-11-30T21:52:21.428Z,48.38
2022-11-30T21:55:23.179Z,41.53
2022-11-30T21:58:25.114Z,23.58
2022-11-30T22:01:38.603Z,39.03
2022-11-30T22:04:40.431Z,23.58
2022-11-30T22:07:43.297Z,22.42
2022-11-30T22:10:45.243Z,22.20
2022-11-30T22:13:54.341Z,23.42
2022-11-30T22:16:56.187Z,24.42
2022-11-30T22:19:58.267Z,24.52
2022-11-30T22:23:00.005Z,23.73
2022-11-30T22:26:17.082Z,22.60
2022-11-30T22:29:22.484Z,24.42
2022-11-30T22:32:24.563Z,23.95
2022-11-30T22:35:26.459Z,23.40
2022-11-30T22:38:31.667Z,23.73
2022-11-30T22:41:33.787Z,23.42
2022-11-30T22:44:35.769Z,24.27
2022-11-30T22:47:37.643Z,25.65
2022-11-30T22:50:39.629Z,27.10
2022-11-30T22:53:43.891Z,28.58
2022-11-30T22:56:46.571Z,27.77
2022-11-30T22:59:49.127Z,29.45
2022-11-30T23:02:51.321Z,27.13
2022-11-30T23:05:54.021Z,29.30
2022-11-30T23:08:56.599Z,29.23
2022-11-30T23:11:58.653Z,20.47
2022-11-30T23:15:00.458Z,25.73
2022-11-30T23:18:02.269Z,23.42
2022-11-30T23:21:07.224Z,24.88
2022-11-30T23:24:17.490Z,23.70
2022-11-30T23:27:19.270Z,24.35
2022-11-30T23:30:21.063Z,24.90
2022-11-30T23:38:08.071Z,21.75
2022-11-30T23:41:11.826Z,43.80
2022-11-30T23:44:13.761Z,42.42
2022-11-30T23:47:18.401Z,29.20
2022-11-30T23:50:20.632Z,30.02
2022-11-30T23:53:23.127Z,28.73
2022-11-30T23:56:25.185Z,28.10
2022-11-30T23:59:26.960Z,22.70
